Portada
METAR-TAF:

METAR-TAF

Aeropuertos :

Aeropuerto de Pau-Pirineos

Pau, Francia

latitud: 43-23N, longitud: 000-25W, altitud: 188 m

Observación

El informe se hizo hace 18 minutos, a las 02:00 UTC
Viento 3 kt del este
Temperatura 7°C
Humedad 100%
Presión 1023 hPa
Visibilidad 10 km o más
sin nubes por debajo de 1500 m y sin presencia de cumulonimbus.

METAR: LFBP 020200Z AUTO 10003KT CAVOK 07/07 Q1023 NOSIG

Hora: 03:18 (02:18 UTC)

Pronóstico

El informe se hizo hace 3 horas y 18 minutos, a las 23:00 UTC
Pronóstico válido del 02 a las 00 UTC al 02 a las 24 UTC
Viento 5 kt del noreste
Visibilidad 10 km o más
sin nubes por debajo de 1500 m y sin presencia de cumulonimbus.
Probabilidad 30% :
Temporalmente
del 02 a las 12 UTC al 02 a las 18 UTC
Escasas nubes a una altura de 6500 ft, Cumulus congestus.

TAF: LFBP 012300Z 0200/0224 05005KT CAVOK PROB30 TEMPO 0212/0218 FEW065TCU

Observaciones y pronósticos meteorológicos de más de 4000 aeropuertos (mensajes METAR y TAF).

Los puntos amarillos y rojos representan las estaciones disponibles.

Ponga el ratón en el punto deseado para ver el nombre de la estación.

Haga clic para ver las observaciones y los pronósticos meteorológicos.

Para cambiar el mapa : haga clic en los botones verdes con una cruz de color negro para hacer un zoom, en el botón verde con un guión para alejar o en las flechas verdes para mapas adyacentes.


METAR-TAF: